createdAt,value
2023-12-12T00:01:22.949Z,98086.50
2023-12-12T00:03:51.479Z,98075.75
2023-12-12T00:06:19.735Z,98080.56
2023-12-12T00:08:50.659Z,98077.25
2023-12-12T00:11:20.041Z,98081.72
2023-12-12T00:13:48.041Z,98083.84
2023-12-12T00:16:16.152Z,98081.03
2023-12-12T00:18:44.211Z,98083.16
2023-12-12T00:21:12.229Z,98077.06
2023-12-12T00:23:40.211Z,98083.50
2023-12-12T00:26:08.870Z,98083.16
2023-12-12T00:28:39.329Z,98072.09
2023-12-12T00:31:07.557Z,98088.78
2023-12-12T00:33:35.714Z,98095.22
2023-12-12T00:36:03.819Z,98091.09
2023-12-12T00:38:31.746Z,98094.41
2023-12-12T00:40:59.676Z,98085.31
2023-12-12T00:43:27.683Z,98085.47
2023-12-12T00:45:57.137Z,98096.03
2023-12-12T00:48:25.154Z,98094.41
2023-12-12T00:50:53.106Z,98090.44
2023-12-12T00:53:23.161Z,98094.09
2023-12-12T00:55:51.046Z,98086.81
2023-12-12T00:58:19.081Z,98090.00
2023-12-12T01:00:47.201Z,98088.16
2023-12-12T01:03:16.507Z,98092.78
2023-12-12T01:05:44.544Z,98092.13
2023-12-12T01:08:12.431Z,98087.00
2023-12-12T01:10:40.311Z,98082.56
2023-12-12T01:13:08.334Z,98083.72
2023-12-12T01:15:38.373Z,98085.56
2023-12-12T01:18:06.410Z,98091.63
2023-12-12T01:20:36.214Z,98092.94
2023-12-12T01:23:04.167Z,98091.78
2023-12-12T01:25:32.710Z,98097.41
2023-12-12T01:28:01.273Z,98087.34
2023-12-12T01:30:29.108Z,98085.34
2023-12-12T01:32:57.051Z,98091.09
2023-12-12T01:35:24.977Z,98090.13
2023-12-12T01:37:54.238Z,98085.47
2023-12-12T01:40:22.178Z,98078.56
2023-12-12T01:42:50.192Z,98071.66
2023-12-12T01:45:20.013Z,98067.66
2023-12-12T01:47:48.544Z,98060.56
2023-12-12T01:50:16.626Z,98053.47
2023-12-12T01:52:44.512Z,98063.69
2023-12-12T01:55:14.195Z,98064.38
2023-12-12T01:57:44.694Z,98055.09
2023-12-12T02:00:14.178Z,98056.75
2023-12-12T02:02:42.113Z,98058.41
2023-12-12T02:05:10.976Z,98052.78
2023-12-12T02:07:41.181Z,98044.84
2023-12-12T02:10:09.949Z,98045.88
2023-12-12T02:12:39.287Z,98052.13
2023-12-12T02:15:08.442Z,98057.91
2023-12-12T02:17:37.027Z,98052.19
2023-12-12T02:20:06.340Z,98052.69
2023-12-12T02:22:35.702Z,98044.28
2023-12-12T02:25:03.821Z,98040.16
2023-12-12T02:27:32.127Z,98023.03
2023-12-12T02:30:00.308Z,98015.44
2023-12-12T02:32:31.073Z,98021.59
2023-12-12T02:34:59.034Z,98023.44
2023-12-12T02:37:26.930Z,98019.81
2023-12-12T02:39:56.240Z,98029.50
2023-12-12T02:42:24.159Z,98037.44
2023-12-12T02:44:54.605Z,98034.47
2023-12-12T02:47:24.002Z,98030.53
2023-12-12T02:49:52.176Z,98029.91
2023-12-12T02:52:20.268Z,98033.16
2023-12-12T02:54:48.261Z,98034.00
2023-12-12T02:57:17.544Z,98032.53
2023-12-12T02:59:45.484Z,98035.84
2023-12-12T03:02:13.355Z,98035.19
2023-12-12T03:04:45.475Z,98034.69
2023-12-12T03:07:14.568Z,98027.94
2023-12-12T03:09:42.541Z,98030.56
2023-12-12T03:12:10.552Z,98030.91
2023-12-12T03:14:40.314Z,98036.53
2023-12-12T03:17:08.297Z,98037.69
2023-12-12T03:19:36.464Z,98042.47
2023-12-12T03:22:04.673Z,98035.53
2023-12-12T03:24:32.862Z,98024.34
2023-12-12T03:27:01.045Z,98013.81
2023-12-12T03:29:31.623Z,98003.91
2023-12-12T03:32:02.226Z,98008.56
2023-12-12T03:34:32.323Z,97998.16
2023-12-12T03:37:00.263Z,97999.63
2023-12-12T03:39:28.129Z,98002.28
2023-12-12T03:41:56.284Z,98009.88
2023-12-12T03:44:24.250Z,98003.91
2023-12-12T03:46:52.200Z,98005.25
2023-12-12T03:49:23.708Z,98001.28
2023-12-12T03:51:53.946Z,97995.19
2023-12-12T03:54:22.071Z,97985.13
2023-12-12T03:56:52.379Z,97986.78
2023-12-12T03:59:20.371Z,97982.50
2023-12-12T04:01:51.549Z,97972.94
2023-12-12T04:04:19.933Z,97977.69
2023-12-12T04:06:49.904Z,97971.09
2023-12-12T04:09:17.844Z,97968.94
2023-12-12T04:11:45.996Z,97968.94
2023-12-12T04:14:14.289Z,97962.88
2023-12-12T04:16:45.212Z,97966.50
2023-12-12T04:19:13.302Z,97960.41
2023-12-12T04:21:45.171Z,97950.38
2023-12-12T04:24:14.545Z,97951.38
2023-12-12T04:26:42.525Z,97951.06
2023-12-12T04:29:10.651Z,97958.44
2023-12-12T04:31:38.709Z,97959.13
2023-12-12T04:34:06.803Z,97954.16
2023-12-12T04:36:35.370Z,97956.84
2023-12-12T04:39:04.016Z,97959.16
2023-12-12T04:41:33.404Z,97956.34
2023-12-12T04:44:01.284Z,97965.06
2023-12-12T04:46:29.363Z,97963.59
2023-12-12T04:49:01.778Z,97957.16
2023-12-12T04:51:29.953Z,97960.78
2023-12-12T04:53:58.493Z,97959.81
2023-12-12T04:56:26.605Z,97946.31
2023-12-12T04:58:55.934Z,97942.16
2023-12-12T05:01:28.365Z,97941.97
2023-12-12T05:03:56.566Z,97938.38
2023-12-12T05:06:27.075Z,97943.34
2023-12-12T05:08:55.049Z,97943.97
2023-12-12T05:11:23.080Z,97950.91
2023-12-12T05:13:51.166Z,97953.19
2023-12-12T05:16:29.045Z,97949.56
2023-12-12T05:19:00.637Z,97951.88
2023-12-12T05:21:28.979Z,97954.34
2023-12-12T05:23:57.465Z,97947.28
2023-12-12T05:26:28.449Z,97949.75
2023-12-12T05:28:59.010Z,97952.38
2023-12-12T05:31:31.035Z,97948.59
2023-12-12T05:33:59.217Z,97947.28
2023-12-12T05:36:28.765Z,97956.66
2023-12-12T05:38:56.725Z,97943.34
2023-12-12T05:41:24.719Z,97940.06
2023-12-12T05:43:52.660Z,97931.50
2023-12-12T05:46:20.698Z,97930.16
2023-12-12T05:48:52.541Z,97926.38
2023-12-12T05:51:21.125Z,97915.72
2023-12-12T05:53:49.181Z,97918.66
2023-12-12T05:56:18.919Z,97916.03
2023-12-12T05:58:46.986Z,97921.97
2023-12-12T06:01:18.805Z,97931.34
2023-12-12T06:03:47.151Z,97930.19
2023-12-12T06:06:21.946Z,97935.44
2023-12-12T06:08:52.793Z,97942.53
2023-12-12T06:11:22.527Z,97946.97
2023-12-12T06:13:50.633Z,97932.00
2023-12-12T06:16:19.140Z,97940.22
2023-12-12T06:18:47.735Z,97937.09
2023-12-12T06:21:15.710Z,97931.50
2023-12-12T06:23:45.024Z,97926.88
2023-12-12T06:26:12.887Z,97928.19
2023-12-12T06:28:40.914Z,97917.03
2023-12-12T06:31:09.648Z,97923.25
2023-12-12T06:33:39.584Z,97921.94
2023-12-12T06:36:08.748Z,97934.47
2023-12-12T06:38:36.707Z,97934.63
2023-12-12T06:41:06.357Z,97933.13
2023-12-12T06:43:34.382Z,97918.63
2023-12-12T06:46:02.375Z,97904.13
2023-12-12T06:48:30.440Z,97900.84
2023-12-12T06:50:58.418Z,97892.94
2023-12-12T06:53:26.381Z,97889.31
2023-12-12T06:55:55.699Z,97888.16
2023-12-12T06:58:25.839Z,97878.44
2023-12-12T07:00:53.939Z,97894.75
2023-12-12T07:03:23.143Z,97896.38
2023-12-12T07:05:52.440Z,97887.16
2023-12-12T07:08:20.482Z,97881.22
2023-12-12T07:10:48.727Z,97889.63
2023-12-12T07:13:16.860Z,97881.53
2023-12-12T07:15:46.145Z,97890.59
2023-12-12T07:18:15.455Z,97893.22
2023-12-12T07:20:45.809Z,97890.91
2023-12-12T07:23:16.763Z,97899.84
2023-12-12T07:25:47.247Z,97899.84
2023-12-12T07:28:15.223Z,97911.00
2023-12-12T07:30:47.716Z,97911.00
2023-12-12T07:33:15.839Z,97910.38
2023-12-12T07:35:43.825Z,97905.09
2023-12-12T07:38:11.793Z,97916.94
2023-12-12T07:40:40.056Z,97913.97
2023-12-12T07:43:08.594Z,97909.38
2023-12-12T07:45:36.664Z,97898.47
2023-12-12T07:48:06.728Z,97882.84
2023-12-12T07:50:34.751Z,97881.00
2023-12-12T07:53:02.660Z,97889.22
2023-12-12T07:55:30.684Z,97893.19
2023-12-12T07:57:58.573Z,97899.94
2023-12-12T08:00:27.358Z,97896.97
2023-12-12T08:02:55.408Z,97898.44
2023-12-12T08:05:24.687Z,97902.09
2023-12-12T08:07:52.603Z,97903.44
2023-12-12T08:10:20.959Z,97894.88
2023-12-12T08:12:50.420Z,97895.72
2023-12-12T08:15:21.110Z,97888.97
2023-12-12T08:17:50.414Z,97880.28
2023-12-12T08:20:18.787Z,97864.59
2023-12-12T08:22:50.621Z,97867.69
2023-12-12T08:25:22.843Z,97868.19
2023-12-12T08:27:51.017Z,97861.22
2023-12-12T08:30:19.076Z,97863.00
2023-12-12T08:32:47.838Z,97850.47
2023-12-12T08:35:15.998Z,97821.66
2023-12-12T08:37:43.979Z,97818.00
2023-12-12T08:40:13.522Z,97825.91
2023-12-12T08:42:41.724Z,97828.47
2023-12-12T08:45:10.979Z,97819.59
2023-12-12T08:47:39.664Z,97816.59
2023-12-12T08:50:10.500Z,97814.56
2023-12-12T08:52:38.816Z,97807.59
2023-12-12T08:55:11.958Z,97809.88
2023-12-12T08:57:41.842Z,97812.63
2023-12-12T09:00:12.200Z,97815.38
2023-12-12T09:02:40.227Z,97809.44
2023-12-12T09:05:09.652Z,97810.09
2023-12-12T09:07:37.976Z,97816.38
2023-12-12T09:10:07.126Z,97817.00
2023-12-12T09:12:35.291Z,97816.97
2023-12-12T09:15:06.973Z,97813.56
2023-12-12T09:17:35.346Z,97804.66
2023-12-12T09:20:04.288Z,97813.03
2023-12-12T09:22:33.107Z,97813.19
2023-12-12T09:25:01.296Z,97805.09
2023-12-12T09:27:32.266Z,97804.47
2023-12-12T09:30:00.507Z,97791.25
2023-12-12T09:32:29.986Z,97787.63
2023-12-12T09:34:57.936Z,97778.34
2023-12-12T09:37:26.290Z,97770.63
2023-12-12T09:39:54.298Z,97769.44
2023-12-12T09:42:26.532Z,97772.38
2023-12-12T09:44:59.956Z,97760.78
2023-12-12T09:47:30.252Z,97753.34
2023-12-12T09:50:08.321Z,97756.53
2023-12-12T09:52:37.991Z,97754.16
2023-12-12T09:55:07.412Z,97744.06
2023-12-12T09:57:36.084Z,97753.44
2023-12-12T10:00:05.630Z,97745.53
2023-12-12T10:02:37.717Z,97748.81
2023-12-12T10:05:06.774Z,97738.06
2023-12-12T10:07:36.673Z,97729.59
2023-12-12T10:10:08.470Z,97724.16
2023-12-12T10:12:37.789Z,97725.97
2023-12-12T10:15:26.161Z,97731.63
2023-12-12T10:18:00.569Z,97733.88
2023-12-12T10:20:31.998Z,97721.34
2023-12-12T10:23:01.920Z,97715.88
2023-12-12T10:25:38.432Z,97705.97
2023-12-12T10:28:08.602Z,97701.22
2023-12-12T10:30:38.331Z,97702.38
2023-12-12T10:33:12.450Z,97706.88
2023-12-12T10:35:50.243Z,97702.84
2023-12-12T10:38:38.641Z,97698.84
2023-12-12T10:41:21.551Z,97685.00
2023-12-12T10:43:51.976Z,97680.16
2023-12-12T10:46:21.903Z,97668.81
2023-12-12T10:48:54.643Z,97657.25
2023-12-12T10:51:23.324Z,97656.59
2023-12-12T10:53:55.891Z,97644.38
2023-12-12T10:56:24.573Z,97652.31
2023-12-12T10:58:53.699Z,97648.28
2023-12-12T11:01:23.024Z,97628.63
2023-12-12T11:03:55.074Z,97613.63
2023-12-12T11:06:24.882Z,97602.13
2023-12-12T11:08:54.047Z,97594.69
2023-12-12T11:11:25.208Z,97590.13
2023-12-12T11:13:54.327Z,97583.53
2023-12-12T11:16:23.256Z,97584.84
2023-12-12T11:18:56.404Z,97574.28
2023-12-12T11:21:55.127Z,97572.88
2023-12-12T11:24:23.211Z,97571.50
2023-12-12T11:26:55.153Z,97566.69
2023-12-12T11:29:26.629Z,97569.34
2023-12-12T11:32:03.045Z,97573.16
2023-12-12T11:34:39.455Z,97563.44
2023-12-12T11:37:09.912Z,97557.03
2023-12-12T11:39:50.774Z,97548.00
2023-12-12T11:42:20.382Z,97532.03
2023-12-12T11:44:50.529Z,97513.59
2023-12-12T11:47:21.806Z,97513.22
2023-12-12T11:49:52.117Z,97518.31
2023-12-12T11:52:51.260Z,97525.00
2023-12-12T11:55:24.634Z,97517.31
2023-12-12T11:58:00.674Z,97517.44
2023-12-12T12:00:33.763Z,97520.94
2023-12-12T12:03:02.737Z,97517.09
2023-12-12T12:05:33.438Z,97517.34
2023-12-12T12:08:03.144Z,97502.56
2023-12-12T12:10:31.483Z,97504.16
2023-12-12T12:13:00.471Z,97504.16
2023-12-12T12:15:29.211Z,97499.91
2023-12-12T12:17:58.961Z,97495.69
2023-12-12T12:20:27.696Z,97482.44
2023-12-12T12:22:57.545Z,97471.88
2023-12-12T12:25:28.592Z,97460.94
2023-12-12T12:27:57.904Z,97457.06
2023-12-12T12:30:27.220Z,97458.31
2023-12-12T12:33:03.732Z,97466.88
2023-12-12T12:35:32.878Z,97451.41
2023-12-12T12:38:03.760Z,97457.53
2023-12-12T12:40:37.657Z,97458.16
2023-12-12T12:43:16.761Z,97454.28
2023-12-12T12:45:46.352Z,97455.91
2023-12-12T12:48:18.061Z,97457.13
2023-12-12T12:50:49.618Z,97441.59
2023-12-12T12:53:20.404Z,97448.84
2023-12-12T12:55:56.323Z,97467.16
2023-12-12T12:58:26.543Z,97464.34
2023-12-12T13:00:56.773Z,97473.75
2023-12-12T13:03:25.194Z,97457.69
2023-12-12T13:05:54.534Z,97445.28
2023-12-12T13:08:24.306Z,97461.97
2023-12-12T13:10:53.694Z,97461.63
2023-12-12T13:13:22.618Z,97469.59
2023-12-12T13:15:51.735Z,97484.31
2023-12-12T13:18:20.115Z,97467.72
2023-12-12T13:20:51.723Z,97473.88
2023-12-12T13:23:19.766Z,97470.91
2023-12-12T13:25:49.427Z,97460.81
2023-12-12T13:28:17.522Z,97480.97
2023-12-12T13:30:48.136Z,97476.25
2023-12-12T13:33:16.425Z,97473.63
2023-12-12T13:38:13.104Z,97478.59
2023-12-12T13:40:42.451Z,97463.34
2023-12-12T13:43:12.080Z,97445.91
2023-12-12T13:45:40.711Z,97428.59
2023-12-12T13:48:09.801Z,97409.69
2023-12-12T13:50:40.160Z,97405.25
2023-12-12T13:53:08.152Z,97401.75
2023-12-12T13:55:36.524Z,97399.78
2023-12-12T13:58:04.788Z,97380.63
2023-12-12T14:00:34.091Z,97380.25
2023-12-12T14:03:02.011Z,97389.00
2023-12-12T14:05:30.241Z,97387.59
2023-12-12T14:07:59.333Z,97379.84
2023-12-12T14:10:27.395Z,97356.84
2023-12-12T14:12:55.597Z,97369.91
2023-12-12T14:15:23.634Z,97368.03
2023-12-12T14:17:55.476Z,97361.34
2023-12-12T14:20:23.449Z,97368.47
2023-12-12T14:25:22.507Z,97373.56
2023-12-12T14:27:52.787Z,97369.47
2023-12-12T14:30:27.109Z,97375.34
2023-12-12T14:32:59.639Z,97383.47
2023-12-12T14:35:30.941Z,97382.28
2023-12-12T14:37:58.963Z,97372.50
2023-12-12T14:40:28.016Z,97362.97
2023-12-12T14:42:56.096Z,97354.38
2023-12-12T14:45:24.420Z,97360.69
2023-12-12T14:47:53.444Z,97360.31
2023-12-12T14:50:22.919Z,97368.03
2023-12-12T14:52:50.912Z,97376.19
2023-12-12T14:55:18.937Z,97374.13
2023-12-12T14:57:47.680Z,97374.13
2023-12-12T15:00:23.534Z,97358.69
2023-12-12T15:02:55.017Z,97355.59
2023-12-12T15:05:24.816Z,97357.97
2023-12-12T15:07:53.023Z,97331.75
2023-12-12T15:10:21.182Z,97328.50
2023-12-12T15:12:49.292Z,97312.63
2023-12-12T15:15:18.094Z,97315.50
2023-12-12T15:18:10.017Z,97319.56
2023-12-12T15:20:47.338Z,97334.63
2023-12-12T15:23:15.408Z,97329.56
2023-12-12T15:25:45.530Z,97338.28
2023-12-12T15:28:24.909Z,97345.63
2023-12-12T15:31:05.501Z,97336.44
2023-12-12T15:33:37.083Z,97335.22
2023-12-12T15:36:08.776Z,97308.97
2023-12-12T15:38:37.356Z,97324.84
2023-12-12T15:41:06.425Z,97320.38
2023-12-12T15:43:35.496Z,97315.72
2023-12-12T15:46:03.842Z,97311.84
2023-12-12T15:48:32.117Z,97313.91
2023-12-12T15:51:00.304Z,97320.78
2023-12-12T15:53:29.886Z,97320.78
2023-12-12T15:55:59.261Z,97313.50
2023-12-12T15:58:27.376Z,97322.84
2023-12-12T16:00:55.509Z,97320.56
2023-12-12T16:03:23.736Z,97315.91
2023-12-12T16:05:51.770Z,97312.06
2023-12-12T16:08:19.704Z,97303.69
2023-12-12T16:10:49.345Z,97299.03
2023-12-12T16:13:17.371Z,97289.06
2023-12-12T16:15:46.095Z,97281.72
2023-12-12T16:18:17.187Z,97276.81
2023-12-12T16:20:45.344Z,97274.16
2023-12-12T16:23:13.402Z,97269.47
2023-12-12T16:25:41.558Z,97258.47
2023-12-12T16:28:11.042Z,97262.56
2023-12-12T16:30:40.887Z,97261.53
2023-12-12T16:33:58.879Z,97254.78
2023-12-12T16:36:43.337Z,97244.59
2023-12-12T16:39:12.454Z,97247.44
2023-12-12T16:41:51.679Z,97256.00
2023-12-12T16:44:23.231Z,97252.38
2023-12-12T16:46:52.485Z,97250.31
2023-12-12T16:49:21.302Z,97228.97
2023-12-12T16:51:49.836Z,97228.81
2023-12-12T16:54:18.119Z,97223.50
2023-12-12T16:57:02.684Z,97239.38
2023-12-12T16:59:42.028Z,97230.81
2023-12-12T17:02:14.722Z,97232.66
2023-12-12T17:04:45.479Z,97223.50
2023-12-12T17:07:13.723Z,97219.44
2023-12-12T17:09:41.835Z,97237.72
2023-12-12T17:12:09.997Z,97254.38
2023-12-12T17:14:39.464Z,97256.22
2023-12-12T17:17:07.518Z,97242.50
2023-12-12T17:19:36.250Z,97244.53
2023-12-12T17:22:06.376Z,97232.97
2023-12-12T17:24:34.782Z,97236.44
2023-12-12T17:27:02.931Z,97238.06
2023-12-12T17:29:33.720Z,97236.84
2023-12-12T17:32:03.666Z,97233.00
2023-12-12T17:34:32.115Z,97245.22
2023-12-12T17:37:00.345Z,97261.66
2023-12-12T17:39:28.415Z,97245.44
2023-12-12T17:41:56.586Z,97261.28
2023-12-12T17:44:24.710Z,97258.22
2023-12-12T17:46:52.905Z,97257.09
2023-12-12T17:49:24.642Z,97272.56
2023-12-12T17:51:55.621Z,97272.94
2023-12-12T17:54:23.982Z,97274.34
2023-12-12T17:56:52.093Z,97269.03
2023-12-12T17:59:20.274Z,97265.88
2023-12-12T18:01:48.482Z,97246.44
2023-12-12T18:04:15.609Z,97252.56
2023-12-12T18:06:45.760Z,97257.06
2023-12-12T18:09:14.299Z,97262.38
2023-12-12T18:11:43.436Z,97263.66
2023-12-12T18:14:11.626Z,97263.25
2023-12-12T18:16:39.940Z,97267.13
2023-12-12T18:19:08.391Z,97251.91
2023-12-12T18:21:37.252Z,97244.38
2023-12-12T18:24:16.157Z,97239.28
2023-12-12T18:26:53.135Z,97239.72
2023-12-12T18:29:23.471Z,97235.66
2023-12-12T18:31:51.663Z,97233.56
2023-12-12T18:34:19.905Z,97230.53
2023-12-12T18:36:48.398Z,97232.38
2023-12-12T18:39:18.015Z,97235.66
2023-12-12T18:41:52.490Z,97239.09
2023-12-12T18:44:22.035Z,97235.44
2023-12-12T18:46:50.655Z,97244.97
2023-12-12T18:49:19.644Z,97243.78
2023-12-12T18:51:49.841Z,97239.69
2023-12-12T18:54:23.813Z,97239.28
2023-12-12T18:56:53.516Z,97244.00
2023-12-12T18:59:22.601Z,97241.16
2023-12-12T19:01:54.193Z,97229.97
2023-12-12T19:04:24.236Z,97223.88
2023-12-12T19:07:00.537Z,97222.66
2023-12-12T19:09:31.049Z,97216.38
2023-12-12T19:12:00.165Z,97217.78
2023-12-12T19:14:28.237Z,97217.38
2023-12-12T19:16:57.166Z,97217.59
2023-12-12T19:19:25.486Z,97218.41
2023-12-12T19:21:54.961Z,97229.41
2023-12-12T19:24:27.635Z,97235.31
2023-12-12T19:26:58.576Z,97224.34
2023-12-12T19:29:30.096Z,97206.47
2023-12-12T19:31:59.758Z,97199.75
2023-12-12T19:34:29.269Z,97194.06
2023-12-12T19:36:58.161Z,97186.13
2023-12-12T19:39:28.981Z,97179.63
2023-12-12T19:41:58.512Z,97184.91
2023-12-12T19:44:30.874Z,97184.09
2023-12-12T19:47:02.058Z,97187.34
2023-12-12T19:49:31.438Z,97191.00
2023-12-12T19:52:04.031Z,97177.19
2023-12-12T19:54:33.433Z,97167.03
2023-12-12T19:57:03.636Z,97171.91
2023-12-12T19:59:31.931Z,97172.31
2023-12-12T20:02:00.606Z,97172.31
2023-12-12T20:04:31.141Z,97181.25
2023-12-12T20:07:00.060Z,97186.53
2023-12-12T20:09:29.269Z,97182.06
2023-12-12T20:11:57.953Z,97189.78
2023-12-12T20:14:32.252Z,97187.75
2023-12-12T20:17:00.232Z,97179.81
2023-12-12T20:19:28.826Z,97174.53
2023-12-12T20:21:56.960Z,97172.31
2023-12-12T20:24:25.541Z,97170.25
2023-12-12T20:26:53.780Z,97175.56
2023-12-12T20:29:21.871Z,97187.34
2023-12-12T20:31:51.980Z,97192.63
2023-12-12T20:34:24.589Z,97184.91
2023-12-12T20:36:56.408Z,97189.78
2023-12-12T20:39:25.741Z,97183.91
2023-12-12T20:41:54.701Z,97185.31
2023-12-12T20:44:23.217Z,97186.94
2023-12-12T20:46:53.044Z,97187.34
2023-12-12T20:49:23.995Z,97192.41
2023-12-12T20:51:55.085Z,97185.13
2023-12-12T20:54:25.853Z,97179.19
2023-12-12T20:56:56.373Z,97176.75
2023-12-12T20:59:26.113Z,97179.19
2023-12-12T21:01:55.567Z,97175.94
2023-12-12T21:04:23.630Z,97169.44
2023-12-12T21:06:54.300Z,97168.63
2023-12-12T21:09:22.928Z,97166.19
2023-12-12T21:11:50.877Z,97169.03
2023-12-12T21:14:18.998Z,97180.03
2023-12-12T21:16:46.957Z,97168.84
2023-12-12T21:19:16.586Z,97165.78
2023-12-12T21:21:44.792Z,97162.34
2023-12-12T21:24:12.877Z,97169.47
2023-12-12T21:26:41.807Z,97173.91
2023-12-12T21:29:09.757Z,97176.19
2023-12-12T21:31:40.007Z,97167.41
2023-12-12T21:34:08.492Z,97160.91
2023-12-12T21:36:39.143Z,97162.75
2023-12-12T21:39:09.358Z,97169.66
2023-12-12T21:41:40.212Z,97176.75
2023-12-12T21:44:08.256Z,97182.06
2023-12-12T21:46:36.427Z,97186.53
2023-12-12T21:49:04.495Z,97194.25
2023-12-12T21:51:32.608Z,97199.53
2023-12-12T21:54:01.949Z,97212.31
2023-12-12T21:56:29.914Z,97210.25
2023-12-12T21:58:58.659Z,97214.94
2023-12-12T22:01:27.232Z,97206.41
2023-12-12T22:04:00.014Z,97214.09
2023-12-12T22:06:28.052Z,97215.13
2023-12-12T22:08:57.668Z,97221.44
2023-12-12T22:11:27.620Z,97215.94
2023-12-12T22:13:58.053Z,97210.84
2023-12-12T22:16:29.311Z,97208.75
2023-12-12T22:18:59.696Z,97206.72
2023-12-12T22:21:29.718Z,97203.44
2023-12-12T22:23:57.674Z,97209.03
2023-12-12T22:26:29.217Z,97207.84
2023-12-12T22:28:57.491Z,97210.19
2023-12-12T22:31:25.477Z,97219.72
2023-12-12T22:33:54.106Z,97218.50
2023-12-12T22:36:24.388Z,97211.53
2023-12-12T22:38:53.666Z,97212.75
2023-12-12T22:41:22.408Z,97194.47
2023-12-12T22:43:51.966Z,97189.81
2023-12-12T22:46:20.784Z,97192.16
2023-12-12T22:48:49.250Z,97191.41
2023-12-12T22:51:17.838Z,97183.47
2023-12-12T22:53:47.714Z,97185.31
2023-12-12T22:56:16.769Z,97182.47
2023-12-12T22:58:45.747Z,97180.84
2023-12-12T23:01:15.534Z,97187.09
2023-12-12T23:03:43.620Z,97192.00
2023-12-12T23:06:11.847Z,97196.06
2023-12-12T23:08:40.168Z,97200.31
2023-12-12T23:11:08.672Z,97191.81
2023-12-12T23:13:37.340Z,97197.69
2023-12-12T23:16:05.883Z,97185.69
2023-12-12T23:18:36.381Z,97184.88
2023-12-12T23:21:04.961Z,97186.47
2023-12-12T23:23:35.036Z,97188.06
2023-12-12T23:26:03.607Z,97190.69
2023-12-12T23:28:31.872Z,97192.97
2023-12-12T23:31:07.498Z,97183.56
2023-12-12T23:33:39.899Z,97188.88
2023-12-12T23:36:09.751Z,97201.66
2023-12-12T23:38:38.666Z,97199.00
2023-12-12T23:41:08.151Z,97200.25
2023-12-12T23:43:37.730Z,97199.84
2023-12-12T23:46:06.647Z,97194.78
2023-12-12T23:48:35.223Z,97194.94
2023-12-12T23:51:04.927Z,97199.81
2023-12-12T23:53:34.724Z,97202.44
2023-12-12T23:56:03.376Z,97199.41
2023-12-12T23:58:32.100Z,97208.19
